Time;durP1;ratioP1;P1;durP2;ratioP2;P2;SDS_P1;SDS_P2;PMS_P1;PMS_P2;Temp;Humidity;BMP_temperature;BMP_pressure;BME280_temperature;BME280_humidity;BME280_pressure;Samples;Min_cycle;Max_cycle;Signal;HPM_P1;HPM_P2
2024/01/08 00:01:12;;;;;;;;;;;;;;;;;;107021;1254;59879;-79
2024/01/08 00:03:46;;;;;;;;;;;;;;;;;;107056;1251;61954;-80
2024/01/08 00:06:12;;;;;;;;;;;;;;;;;;107833;1250;61017;-80
2024/01/08 00:08:39;;;;;;;;;;;;;;;;;;109686;1251;58854;-80
2024/01/08 00:11:05;;;;;;;;;;;;;;;;;;109715;1250;58887;-80
2024/01/08 00:13:32;;;;;;;;;;;;;;;;;;108990;1253;59766;-80
2024/01/08 00:15:58;;;;;;;;;;;;;;;;;;109644;1250;58829;-79
2024/01/08 00:18:25;;;;;;;;;;;;;;;;;;109510;1251;58967;-79
2024/01/08 00:20:51;;;;;;;;;;;;;;;;;;109647;1250;60776;-79
2024/01/08 00:23:17;;;;;;;;;;;;;;;;;;109648;1251;58991;-80
2024/01/08 00:25:43;;;;;;;;;;;;;;;;;;109657;1250;58934;-79
2024/01/08 00:28:10;;;;;;;;;;;;;;;;;;109656;1250;58844;-79
2024/01/08 00:30:36;;;;;;;;;;;;;;;;;;109659;1250;59100;-79
2024/01/08 00:33:02;;;;;;;;;;;;;;;;;;109662;1250;58850;-80
2024/01/08 00:35:29;;;;;;;;;;;;;;;;;;109618;1250;59103;-79
2024/01/08 00:37:55;;;;;;;;;;;;;;;;;;109514;1250;58885;-80
2024/01/08 00:40:22;;;;;;;;;;;;;;;;;;107813;1250;59717;-79
2024/01/08 00:42:48;;;;;;;;;;;;;;;;;;107051;1251;59887;-79
2024/01/08 00:45:14;;;;;;;;;;;;;;;;;;106947;1251;59805;-79
2024/01/08 00:47:41;;;;;;;;;;;;;;;;;;106986;1251;59828;-79
2024/01/08 00:50:10;;;;;;;;;;;;;;;;;;107000;1251;59735;-79
2024/01/08 00:52:36;;;;;;;;;;;;;;;;;;107017;1251;59740;-79
2024/01/08 00:55:05;;;;;;;;;;;;;;;;;;107072;1251;60895;-79
2024/01/08 00:57:32;;;;;;;;;;;;;;;;;;107116;1251;61877;-79
2024/01/08 00:59:58;;;;;;;;;;;;;;;;;;107067;1251;59978;-79
2024/01/08 01:02:24;;;;;;;;;;;;;;;;;;109231;1250;58905;-79
2024/01/08 01:04:51;;;;;;;;;;;;;;;;;;108474;1250;62047;-80
2024/01/08 01:07:17;;;;;;;;;;;;;;;;;;107595;1251;59220;-81
2024/01/08 01:09:43;;;;;;;;;;;;;;;;;;107626;1250;59600;-81
2024/01/08 01:12:11;;;;;;;;;;;;;;;;;;107666;1251;60931;-81
2024/01/08 01:14:37;;;;;;;;;;;;;;;;;;107625;1250;59252;-81
2024/01/08 01:17:03;;;;;;;;;;;;;;;;;;109067;1251;59840;-81
2024/01/08 01:19:30;;;;;;;;;;;;;;;;;;109650;1250;58816;-81
2024/01/08 01:21:56;;;;;;;;;;;;;;;;;;109613;1250;58990;-82
2024/01/08 01:24:22;;;;;;;;;;;;;;;;;;107498;1250;60800;-79
2024/01/08 01:26:49;;;;;;;;;;;;;;;;;;107066;1251;61322;-80
2024/01/08 01:29:15;;;;;;;;;;;;;;;;;;106998;1251;59666;-79
2024/01/08 01:31:41;;;;;;;;;;;;;;;;;;107046;1251;60357;-79
2024/01/08 01:34:10;;;;;;;;;;;;;;;;;;107045;1250;59921;-79
2024/01/08 01:36:37;;;;;;;;;;;;;;;;;;107030;1251;60892;-79
2024/01/08 01:39:03;;;;;;;;;;;;;;;;;;106988;1251;60652;-79
2024/01/08 01:41:29;;;;;;;;;;;;;;;;;;107089;1250;60754;-80
2024/01/08 01:43:56;;;;;;;;;;;;;;;;;;107084;1251;59831;-79
2024/01/08 01:46:22;;;;;;;;;;;;;;;;;;107113;1250;59295;-79
2024/01/08 01:48:49;;;;;;;;;;;;;;;;;;107070;1251;59433;-79
2024/01/08 01:51:16;;;;;;;;;;;;;;;;;;106940;1251;59814;-79
2024/01/08 01:53:42;;;;;;;;;;;;;;;;;;107038;1254;59586;-79
2024/01/08 01:56:09;;;;;;;;;;;;;;;;;;107011;1251;59712;-79
2024/01/08 01:58:35;;;;;;;;;;;;;;;;;;107024;1251;59881;-79
2024/01/08 02:01:02;;;;;;;;;;;;;;;;;;107018;1254;60724;-79
2024/01/08 02:03:29;;;;;;;;;;;;;;;;;;107064;1251;60345;-80
2024/01/08 02:05:55;;;;;;;;;;;;;;;;;;106959;1256;59804;-79
2024/01/08 02:08:21;;;;;;;;;;;;;;;;;;107046;1251;60780;-79
2024/01/08 02:10:48;;;;;;;;;;;;;;;;;;107018;1251;59561;-79
2024/01/08 02:13:14;;;;;;;;;;;;;;;;;;107110;1251;61874;-79
2024/01/08 02:15:41;;;;;;;;;;;;;;;;;;109575;1250;58932;-80
2024/01/08 02:18:07;;;;;;;;;;;;;;;;;;109558;1251;58876;-80
2024/01/08 02:20:33;;;;;;;;;;;;;;;;;;109559;1253;58910;-79
2024/01/08 02:22:59;;;;;;;;;;;;;;;;;;108173;1250;59886;-79
2024/01/08 02:25:26;;;;;;;;;;;;;;;;;;107070;1250;61004;-80
2024/01/08 02:27:52;;;;;;;;;;;;;;;;;;106976;1251;59717;-79
2024/01/08 02:30:19;;;;;;;;;;;;;;;;;;106996;1251;60864;-79
2024/01/08 02:32:45;;;;;;;;;;;;;;;;;;107026;1252;61995;-79
2024/01/08 02:35:11;;;;;;;;;;;;;;;;;;107014;1250;59809;-79
2024/01/08 02:37:38;;;;;;;;;;;;;;;;;;106985;1251;60823;-79
2024/01/08 02:40:04;;;;;;;;;;;;;;;;;;106929;1251;59229;-79
2024/01/08 02:42:31;;;;;;;;;;;;;;;;;;108265;1251;59831;-80
2024/01/08 02:44:57;;;;;;;;;;;;;;;;;;109500;1253;59123;-79
2024/01/08 02:47:23;;;;;;;;;;;;;;;;;;109525;1252;58980;-80
2024/01/08 02:49:50;;;;;;;;;;;;;;;;;;109512;1252;59119;-79
2024/01/08 02:52:16;;;;;;;;;;;;;;;;;;109520;1252;59213;-80
2024/01/08 02:54:42;;;;;;;;;;;;;;;;;;109556;1251;59021;-80
2024/01/08 02:57:09;;;;;;;;;;;;;;;;;;109602;1251;59168;-80
2024/01/08 02:59:35;;;;;;;;;;;;;;;;;;109572;1250;58945;-79
2024/01/08 03:02:01;;;;;;;;;;;;;;;;;;109587;1251;58876;-79
2024/01/08 03:04:28;;;;;;;;;;;;;;;;;;109552;1251;58809;-80
2024/01/08 03:06:54;;;;;;;;;;;;;;;;;;109556;1250;58914;-79
2024/01/08 03:09:21;;;;;;;;;;;;;;;;;;108425;1251;59939;-79
2024/01/08 03:11:47;;;;;;;;;;;;;;;;;;107067;1251;60995;-79
2024/01/08 03:14:13;;;;;;;;;;;;;;;;;;107098;1251;61171;-79
2024/01/08 03:16:40;;;;;;;;;;;;;;;;;;106997;1254;60925;-79
2024/01/08 03:19:06;;;;;;;;;;;;;;;;;;106975;1251;59721;-79
2024/01/08 03:21:32;;;;;;;;;;;;;;;;;;107089;1251;59745;-79
2024/01/08 03:23:59;;;;;;;;;;;;;;;;;;107026;1251;59825;-80
2024/01/08 03:26:25;;;;;;;;;;;;;;;;;;106999;1251;59896;-79
2024/01/08 03:28:51;;;;;;;;;;;;;;;;;;107112;1251;59259;-80
2024/01/08 03:31:18;;;;;;;;;;;;;;;;;;107099;1251;60967;-80
2024/01/08 03:33:44;;;;;;;;;;;;;;;;;;107036;1251;59836;-80
2024/01/08 03:36:10;;;;;;;;;;;;;;;;;;107077;1251;59227;-79
2024/01/08 03:38:37;;;;;;;;;;;;;;;;;;107781;1251;59091;-80
2024/01/08 03:41:03;;;;;;;;;;;;;;;;;;109599;1251;58864;-80
2024/01/08 03:43:30;;;;;;;;;;;;;;;;;;109539;1251;59156;-80
2024/01/08 03:45:56;;;;;;;;;;;;;;;;;;109554;1251;59003;-80
2024/01/08 03:48:23;;;;;;;;;;;;;;;;;;109572;1251;59130;-80
2024/01/08 03:50:49;;;;;;;;;;;;;;;;;;108525;1251;59895;-80
2024/01/08 03:53:15;;;;;;;;;;;;;;;;;;106995;1254;60658;-80
2024/01/08 03:55:42;;;;;;;;;;;;;;;;;;107043;1251;59897;-79
2024/01/08 03:58:09;;;;;;;;;;;;;;;;;;107046;1250;59195;-80
2024/01/08 04:00:35;;;;;;;;;;;;;;;;;;106986;1251;59779;-80
2024/01/08 04:03:01;;;;;;;;;;;;;;;;;;107009;1250;59847;-80
2024/01/08 04:05:28;;;;;;;;;;;;;;;;;;107060;1251;60893;-80
2024/01/08 04:07:54;;;;;;;;;;;;;;;;;;107055;1250;59876;-80
2024/01/08 04:10:20;;;;;;;;;;;;;;;;;;107033;1251;59860;-79
2024/01/08 04:12:47;;;;;;;;;;;;;;;;;;107058;1250;59858;-79
2024/01/08 04:15:13;;;;;;;;;;;;;;;;;;107044;1251;59235;-79
2024/01/08 04:17:40;;;;;;;;;;;;;;;;;;107028;1250;59888;-80
2024/01/08 04:20:06;;;;;;;;;;;;;;;;;;107010;1251;59875;-80
2024/01/08 04:22:32;;;;;;;;;;;;;;;;;;107040;1250;59913;-80
2024/01/08 04:24:59;;;;;;;;;;;;;;;;;;107040;1251;60897;-80
2024/01/08 04:27:25;;;;;;;;;;;;;;;;;;107017;1251;60367;-80
2024/01/08 04:29:51;;;;;;;;;;;;;;;;;;107015;1250;59838;-80
2024/01/08 04:32:18;;;;;;;;;;;;;;;;;;107041;1251;60803;-79
2024/01/08 04:34:44;;;;;;;;;;;;;;;;;;107094;1251;59789;-79
2024/01/08 04:37:10;;;;;;;;;;;;;;;;;;107123;1250;59896;-80
2024/01/08 04:39:37;;;;;;;;;;;;;;;;;;108308;1250;59671;-80
2024/01/08 04:42:03;;;;;;;;;;;;;;;;;;107089;1251;60256;-80
2024/01/08 04:44:30;;;;;;;;;;;;;;;;;;106987;1251;59757;-80
2024/01/08 04:46:56;;;;;;;;;;;;;;;;;;107092;1254;59841;-79
2024/01/08 04:49:22;;;;;;;;;;;;;;;;;;106986;1251;61854;-80
2024/01/08 04:51:50;;;;;;;;;;;;;;;;;;107018;1251;61146;-80
2024/01/08 04:54:16;;;;;;;;;;;;;;;;;;106973;1251;59762;-80
2024/01/08 04:56:43;;;;;;;;;;;;;;;;;;107080;1251;60718;-80
2024/01/08 04:59:09;;;;;;;;;;;;;;;;;;107073;1250;60797;-80
2024/01/08 05:01:35;;;;;;;;;;;;;;;;;;107095;1250;59798;-80
2024/01/08 05:04:02;;;;;;;;;;;;;;;;;;107056;1250;60999;-80
2024/01/08 05:06:28;;;;;;;;;;;;;;;;;;107091;1251;60800;-80
2024/01/08 05:08:54;;;;;;;;;;;;;;;;;;107027;1251;59828;-79
2024/01/08 05:11:21;;;;;;;;;;;;;;;;;;107064;1250;59880;-80
2024/01/08 05:13:48;;;;;;;;;;;;;;;;;;107036;1251;59743;-79
2024/01/08 05:16:14;;;;;;;;;;;;;;;;;;107088;1251;59860;-80
2024/01/08 05:18:40;;;;;;;;;;;;;;;;;;107099;1251;59830;-80
2024/01/08 05:21:07;;;;;;;;;;;;;;;;;;107127;1251;60199;-80
2024/01/08 05:23:34;;;;;;;;;;;;;;;;;;107144;1250;61986;-79
2024/01/08 05:26:00;;;;;;;;;;;;;;;;;;107121;1251;60929;-80
2024/01/08 05:28:27;;;;;;;;;;;;;;;;;;107095;1251;59854;-80
2024/01/08 05:30:53;;;;;;;;;;;;;;;;;;107098;1254;59802;-79
2024/01/08 05:33:20;;;;;;;;;;;;;;;;;;107025;1254;59799;-79
2024/01/08 05:35:46;;;;;;;;;;;;;;;;;;107126;1251;59906;-80
2024/01/08 05:38:12;;;;;;;;;;;;;;;;;;107070;1251;59908;-80
2024/01/08 05:40:39;;;;;;;;;;;;;;;;;;107102;1250;60772;-80
2024/01/08 05:43:05;;;;;;;;;;;;;;;;;;107077;1251;59234;-79
2024/01/08 05:45:31;;;;;;;;;;;;;;;;;;107062;1254;59825;-80
2024/01/08 05:47:58;;;;;;;;;;;;;;;;;;107012;1251;59892;-80
2024/01/08 05:50:27;;;;;;;;;;;;;;;;;;107024;1251;60878;-80
2024/01/08 05:52:54;;;;;;;;;;;;;;;;;;107024;1250;59985;-79
2024/01/08 05:55:20;;;;;;;;;;;;;;;;;;107069;1251;59744;-80
2024/01/08 05:57:46;;;;;;;;;;;;;;;;;;107952;1250;61884;-80
2024/01/08 06:00:14;;;;;;;;;;;;;;;;;;109639;1250;59084;-80
2024/01/08 06:02:41;;;;;;;;;;;;;;;;;;109659;1250;59396;-80
2024/01/08 06:05:08;;;;;;;;;;;;;;;;;;109586;1251;58954;-80
2024/01/08 06:07:34;;;;;;;;;;;;;;;;;;107545;1251;59830;-80
2024/01/08 06:10:01;;;;;;;;;;;;;;;;;;107166;1251;59486;-80
2024/01/08 06:12:27;;;;;;;;;;;;;;;;;;107042;1251;60328;-80
2024/01/08 06:14:55;;;;;;;;;;;;;;;;;;107130;1250;59882;-80
2024/01/08 06:17:22;;;;;;;;;;;;;;;;;;107056;1250;60331;-79
2024/01/08 06:19:48;;;;;;;;;;;;;;;;;;107118;1250;59854;-80
2024/01/08 06:22:14;;;;;;;;;;;;;;;;;;107152;1251;59738;-79
2024/01/08 06:24:41;;;;;;;;;;;;;;;;;;107047;1250;59851;-80
2024/01/08 06:27:07;;;;;;;;;;;;;;;;;;107137;1250;59886;-79
2024/01/08 06:29:34;;;;;;;;;;;;;;;;;;107116;1250;60878;-79
2024/01/08 06:32:00;;;;;;;;;;;;;;;;;;107175;1250;59115;-80
2024/01/08 06:34:27;;;;;;;;;;;;;;;;;;106989;1251;196725;-80
2024/01/08 06:36:53;;;;;;;;;;;;;;;;;;107065;1251;59468;-79
2024/01/08 06:39:20;;;;;;;;;;;;;;;;;;107049;1250;61346;-80
2024/01/08 06:41:46;;;;;;;;;;;;;;;;;;107144;1249;59929;-80
2024/01/08 06:44:12;;;;;;;;;;;;;;;;;;107125;1250;59761;-80
2024/01/08 06:46:39;;;;;;;;;;;;;;;;;;107087;1251;61031;-79
2024/01/08 06:49:05;;;;;;;;;;;;;;;;;;107077;1250;59996;-79
2024/01/08 06:51:32;;;;;;;;;;;;;;;;;;107131;1250;59823;-80
2024/01/08 06:53:58;;;;;;;;;;;;;;;;;;107227;1251;59721;-80
2024/01/08 06:56:25;;;;;;;;;;;;;;;;;;107208;1251;59902;-79
2024/01/08 06:58:51;;;;;;;;;;;;;;;;;;108031;1251;60798;-80
2024/01/08 07:01:17;;;;;;;;;;;;;;;;;;109585;1251;58797;-80
2024/01/08 07:03:44;;;;;;;;;;;;;;;;;;109544;1251;58929;-80
2024/01/08 07:06:11;;;;;;;;;;;;;;;;;;109533;1251;58866;-80
2024/01/08 07:08:37;;;;;;;;;;;;;;;;;;109534;1251;58883;-80
2024/01/08 07:11:03;;;;;;;;;;;;;;;;;;108756;1251;60936;-80
2024/01/08 07:13:30;;;;;;;;;;;;;;;;;;107086;1252;59934;-81
2024/01/08 07:15:56;;;;;;;;;;;;;;;;;;107183;1251;59834;-80
2024/01/08 07:18:23;;;;;;;;;;;;;;;;;;107143;1251;59261;-80
2024/01/08 07:20:49;;;;;;;;;;;;;;;;;;107163;1252;59733;-79
2024/01/08 07:23:15;;;;;;;;;;;;;;;;;;107123;1251;59845;-80
2024/01/08 07:25:42;;;;;;;;;;;;;;;;;;107140;1249;59972;-80
2024/01/08 07:28:08;;;;;;;;;;;;;;;;;;107149;1252;59928;-80
2024/01/08 07:30:34;;;;;;;;;;;;;;;;;;107148;1252;60852;-79
2024/01/08 07:33:01;;;;;;;;;;;;;;;;;;107189;1251;59199;-79
2024/01/08 07:35:27;;;;;;;;;;;;;;;;;;107106;1253;59603;-79
2024/01/08 07:37:57;;;;;;;;;;;;;;;;;;107065;1253;61928;-79
2024/01/08 07:40:24;;;;;;;;;;;;;;;;;;107183;1251;60904;-79
2024/01/08 07:42:51;;;;;;;;;;;;;;;;;;107127;1253;60867;-79
2024/01/08 07:45:17;;;;;;;;;;;;;;;;;;107197;1250;60935;-79
2024/01/08 07:47:44;;;;;;;;;;;;;;;;;;107101;1251;60972;-80
2024/01/08 07:50:10;;;;;;;;;;;;;;;;;;107201;1249;60674;-80
2024/01/08 07:52:36;;;;;;;;;;;;;;;;;;107186;1254;60907;-80
2024/01/08 07:55:03;;;;;;;;;;;;;;;;;;107291;1251;59206;-80
2024/01/08 07:57:29;;;;;;;;;;;;;;;;;;107211;1251;59491;-80
2024/01/08 07:59:55;;;;;;;;;;;;;;;;;;107132;1253;59845;-79
2024/01/08 08:02:22;;;;;;;;;;;;;;;;;;107324;1251;59137;-79
2024/01/08 08:04:48;;;;;;;;;;;;;;;;;;107158;1251;59822;-79
2024/01/08 08:07:15;;;;;;;;;;;;;;;;;;107098;1253;59920;-80
2024/01/08 08:09:41;;;;;;;;;;;;;;;;;;107103;1251;59819;-80
2024/01/08 08:12:08;;;;;;;;;;;;;;;;;;107265;1253;61195;-80
2024/01/08 08:14:36;;;;;;;;;;;;;;;;;;107329;1251;59816;-81
2024/01/08 08:17:02;;;;;;;;;;;;;;;;;;107219;1251;60898;-80
2024/01/08 08:19:29;;;;;;;;;;;;;;;;;;107254;1249;59737;-80
2024/01/08 08:21:55;;;;;;;;;;;;;;;;;;107401;1250;59834;-80
2024/01/08 08:24:22;;;;;;;;;;;;;;;;;;107401;1251;59795;-81
2024/01/08 08:26:48;;;;;;;;;;;;;;;;;;107124;1253;60916;-81
2024/01/08 08:29:15;;;;;;;;;;;;;;;;;;106896;1252;62105;-81
2024/01/08 08:31:41;;;;;;;;;;;;;;;;;;107138;1253;59410;-80
2024/01/08 08:34:09;;;;;;;;;;;;;;;;;;107093;1252;59730;-79
2024/01/08 08:36:35;;;;;;;;;;;;;;;;;;107194;1251;61972;-79
2024/01/08 08:39:02;;;;;;;;;;;;;;;;;;107667;1252;59682;-80
2024/01/08 08:41:28;;;;;;;;;;;;;;;;;;109497;1251;59316;-79
2024/01/08 08:43:55;;;;;;;;;;;;;;;;;;109512;1251;58864;-79
2024/01/08 08:46:21;;;;;;;;;;;;;;;;;;109693;1250;58866;-79
2024/01/08 08:48:47;;;;;;;;;;;;;;;;;;109575;1250;59037;-80
2024/01/08 08:51:15;;;;;;;;;;;;;;;;;;109554;1252;58863;-80
2024/01/08 08:53:41;;;;;;;;;;;;;;;;;;109546;1251;60088;-79
2024/01/08 08:56:10;;;;;;;;;;;;;;;;;;108985;1252;60995;-79
2024/01/08 08:58:37;;;;;;;;;;;;;;;;;;109505;1250;59179;-79
2024/01/08 09:01:04;;;;;;;;;;;;;;;;;;109559;1250;62092;-80
2024/01/08 09:03:30;;;;;;;;;;;;;;;;;;109584;1252;59120;-79
2024/01/08 09:05:56;;;;;;;;;;;;;;;;;;109554;1249;59249;-79
2024/01/08 09:08:26;;;;;;;;;;;;;;;;;;108026;1253;59372;-79
2024/01/08 09:10:52;;;;;;;;;;;;;;;;;;109501;1251;58830;-79
2024/01/08 09:13:18;;;;;;;;;;;;;;;;;;109565;1250;58843;-80
2024/01/08 09:15:45;;;;;;;;;;;;;;;;;;109638;1250;58859;-79
2024/01/08 09:18:11;;;;;;;;;;;;;;;;;;109621;1251;59155;-79
2024/01/08 09:20:37;;;;;;;;;;;;;;;;;;109623;1250;59221;-79
2024/01/08 09:23:04;;;;;;;;;;;;;;;;;;109656;1250;58960;-79
2024/01/08 09:25:30;;;;;;;;;;;;;;;;;;109556;1250;59184;-79
2024/01/08 09:27:56;;;;;;;;;;;;;;;;;;109576;1251;58868;-79
2024/01/08 09:30:22;;;;;;;;;;;;;;;;;;108844;1253;60757;-79
2024/01/08 09:32:49;;;;;;;;;;;;;;;;;;108103;1251;59803;-79
2024/01/08 09:35:17;;;;;;;;;;;;;;;;;;109441;1251;59305;-79
2024/01/08 09:37:43;;;;;;;;;;;;;;;;;;109523;1250;59248;-79
2024/01/08 09:40:10;;;;;;;;;;;;;;;;;;109673;1250;58873;-80
2024/01/08 09:42:39;;;;;;;;;;;;;;;;;;109574;1249;58899;-79
2024/01/08 09:45:06;;;;;;;;;;;;;;;;;;109428;1251;58883;-79
2024/01/08 09:47:32;;;;;;;;;;;;;;;;;;109649;1251;59189;-79
2024/01/08 09:49:59;;;;;;;;;;;;;;;;;;109560;1251;59154;-79
2024/01/08 09:52:25;;;;;;;;;;;;;;;;;;109559;1250;59076;-79
2024/01/08 09:54:51;;;;;;;;;;;;;;;;;;109540;1253;59070;-79
2024/01/08 09:57:18;;;;;;;;;;;;;;;;;;109623;1250;58897;-80
2024/01/08 09:59:44;;;;;;;;;;;;;;;;;;109630;1253;59188;-80
2024/01/08 10:02:11;;;;;;;;;;;;;;;;;;109193;1251;59835;-79
2024/01/08 10:04:37;;;;;;;;;;;;;;;;;;107513;1250;60820;-79
2024/01/08 10:07:04;;;;;;;;;;;;;;;;;;107262;1251;59690;-79
2024/01/08 10:09:30;;;;;;;;;;;;;;;;;;106983;1251;59737;-79
2024/01/08 10:11:57;;;;;;;;;;;;;;;;;;106868;1251;59285;-79
2024/01/08 10:14:23;;;;;;;;;;;;;;;;;;107164;1251;59826;-79
2024/01/08 10:16:50;;;;;;;;;;;;;;;;;;107064;1253;60823;-78
2024/01/08 10:19:17;;;;;;;;;;;;;;;;;;107440;1251;60911;-79
2024/01/08 10:21:47;;;;;;;;;;;;;;;;;;107310;1251;61053;-79
2024/01/08 10:24:13;;;;;;;;;;;;;;;;;;107308;1251;59828;-78
2024/01/08 10:26:40;;;;;;;;;;;;;;;;;;107139;1253;59617;-79
2024/01/08 10:29:06;;;;;;;;;;;;;;;;;;107870;1252;59484;-79
2024/01/08 10:31:33;;;;;;;;;;;;;;;;;;107987;1251;60482;-79
2024/01/08 10:33:59;;;;;;;;;;;;;;;;;;108302;1250;60865;-79
2024/01/08 10:36:26;;;;;;;;;;;;;;;;;;108484;1251;59067;-79
2024/01/08 10:38:53;;;;;;;;;;;;;;;;;;106927;1253;59817;-79
2024/01/08 10:41:19;;;;;;;;;;;;;;;;;;106935;1253;59608;-79
2024/01/08 10:43:45;;;;;;;;;;;;;;;;;;107016;1251;59845;-79
2024/01/08 10:46:12;;;;;;;;;;;;;;;;;;106892;1253;62032;-79
2024/01/08 10:48:39;;;;;;;;;;;;;;;;;;106781;1251;60030;-79
2024/01/08 10:51:06;;;;;;;;;;;;;;;;;;106757;1251;62867;-79
2024/01/08 10:53:32;;;;;;;;;;;;;;;;;;106795;1251;60686;-79
2024/01/08 10:55:59;;;;;;;;;;;;;;;;;;106819;1251;59852;-79
2024/01/08 10:58:25;;;;;;;;;;;;;;;;;;106867;1251;59667;-79
2024/01/08 11:00:52;;;;;;;;;;;;;;;;;;106683;1251;59828;-79
2024/01/08 11:03:18;;;;;;;;;;;;;;;;;;106758;1251;59742;-79
2024/01/08 11:05:44;;;;;;;;;;;;;;;;;;106809;1253;60825;-79
2024/01/08 11:08:11;;;;;;;;;;;;;;;;;;106774;1253;59726;-79
2024/01/08 11:10:37;;;;;;;;;;;;;;;;;;106556;1253;60830;-79
2024/01/08 11:13:03;;;;;;;;;;;;;;;;;;106595;1253;59886;-79
2024/01/08 11:15:30;;;;;;;;;;;;;;;;;;106832;1255;59774;-79
2024/01/08 11:17:58;;;;;;;;;;;;;;;;;;106890;1253;61291;-79
2024/01/08 11:20:24;;;;;;;;;;;;;;;;;;106807;1251;59766;-79
2024/01/08 11:22:51;;;;;;;;;;;;;;;;;;106914;1253;59778;-79
2024/01/08 11:25:17;;;;;;;;;;;;;;;;;;107168;1251;59825;-79
2024/01/08 11:27:43;;;;;;;;;;;;;;;;;;107125;1254;59236;-79
2024/01/08 11:30:10;;;;;;;;;;;;;;;;;;107260;1251;60378;-79
2024/01/08 11:32:37;;;;;;;;;;;;;;;;;;107084;1255;59903;-79
2024/01/08 11:35:06;;;;;;;;;;;;;;;;;;107177;1253;59841;-80
2024/01/08 11:37:32;;;;;;;;;;;;;;;;;;107476;1251;62108;-80
2024/01/08 11:39:58;;;;;;;;;;;;;;;;;;107471;1254;59241;-80
2024/01/08 11:42:25;;;;;;;;;;;;;;;;;;107378;1253;62070;-79
2024/01/08 11:44:55;;;;;;;;;;;;;;;;;;106992;1253;59820;-80
2024/01/08 11:47:27;;;;;;;;;;;;;;;;;;106913;1252;60782;-79
2024/01/08 11:49:54;;;;;;;;;;;;;;;;;;106936;1251;61065;-80
2024/01/08 11:52:20;;;;;;;;;;;;;;;;;;106886;1252;60935;-79
2024/01/08 11:54:48;;;;;;;;;;;;;;;;;;106893;1253;59892;-80
2024/01/08 11:57:15;;;;;;;;;;;;;;;;;;107438;1253;60450;-79
2024/01/08 11:59:41;;;;;;;;;;;;;;;;;;107794;1251;59751;-79
2024/01/08 12:02:09;;;;;;;;;;;;;;;;;;107053;1251;60787;-79
2024/01/08 12:04:35;;;;;;;;;;;;;;;;;;107195;1253;62833;-80
2024/01/08 12:07:01;;;;;;;;;;;;;;;;;;107251;1250;59193;-80
2024/01/08 12:09:28;;;;;;;;;;;;;;;;;;107095;1251;59932;-79
2024/01/08 12:11:54;;;;;;;;;;;;;;;;;;106850;1253;59850;-80
2024/01/08 12:14:20;;;;;;;;;;;;;;;;;;106761;1255;59165;-79
2024/01/08 12:16:47;;;;;;;;;;;;;;;;;;106800;1255;59838;-79
2024/01/08 12:19:13;;;;;;;;;;;;;;;;;;107122;1254;59741;-79
2024/01/08 12:21:40;;;;;;;;;;;;;;;;;;107122;1251;61944;-80
2024/01/08 12:24:13;;;;;;;;;;;;;;;;;;107558;1254;60925;-79
2024/01/08 12:26:41;;;;;;;;;;;;;;;;;;107096;1251;59743;-79
2024/01/08 12:29:07;;;;;;;;;;;;;;;;;;108248;1251;60475;-79
2024/01/08 12:31:34;;;;;;;;;;;;;;;;;;108435;1250;59748;-79
2024/01/08 12:34:01;;;;;;;;;;;;;;;;;;109537;1253;59181;-80
2024/01/08 12:36:27;;;;;;;;;;;;;;;;;;109523;1252;58862;-80
2024/01/08 12:38:54;;;;;;;;;;;;;;;;;;109479;1250;59334;-79
2024/01/08 12:41:20;;;;;;;;;;;;;;;;;;109586;1251;58872;-80
2024/01/08 12:43:47;;;;;;;;;;;;;;;;;;108900;1255;59260;-79
2024/01/08 12:46:13;;;;;;;;;;;;;;;;;;109506;1255;59138;-80
2024/01/08 12:48:40;;;;;;;;;;;;;;;;;;109541;1251;59159;-80
2024/01/08 12:51:07;;;;;;;;;;;;;;;;;;109553;1251;59289;-79
2024/01/08 12:53:33;;;;;;;;;;;;;;;;;;109513;1253;62937;-80
2024/01/08 12:56:00;;;;;;;;;;;;;;;;;;109503;1253;59002;-79
2024/01/08 12:58:26;;;;;;;;;;;;;;;;;;109485;1251;58888;-80
2024/01/08 13:00:52;;;;;;;;;;;;;;;;;;109433;1252;59061;-79
2024/01/08 13:03:19;;;;;;;;;;;;;;;;;;108322;1253;62130;-79
2024/01/08 13:05:45;;;;;;;;;;;;;;;;;;107171;1254;60968;-79
2024/01/08 13:08:12;;;;;;;;;;;;;;;;;;107053;1253;62125;-79
2024/01/08 13:10:38;;;;;;;;;;;;;;;;;;107097;1250;59783;-79
2024/01/08 13:13:04;;;;;;;;;;;;;;;;;;107233;1254;61808;-79
2024/01/08 13:15:31;;;;;;;;;;;;;;;;;;107654;1252;59744;-79
2024/01/08 13:17:57;;;;;;;;;;;;;;;;;;107014;1255;59821;-79
2024/01/08 13:20:23;;;;;;;;;;;;;;;;;;107012;1255;60862;-80
2024/01/08 13:22:50;;;;;;;;;;;;;;;;;;107169;1254;60513;-79
2024/01/08 13:25:16;;;;;;;;;;;;;;;;;;107099;1254;59617;-79
2024/01/08 13:27:42;;;;;;;;;;;;;;;;;;107027;1254;60807;-79
2024/01/08 13:30:09;;;;;;;;;;;;;;;;;;106932;1254;59858;-79
2024/01/08 13:32:35;;;;;;;;;;;;;;;;;;107131;1255;59806;-80
2024/01/08 13:35:01;;;;;;;;;;;;;;;;;;107059;1251;60731;-79
2024/01/08 13:37:28;;;;;;;;;;;;;;;;;;107075;1251;59796;-80
2024/01/08 13:39:54;;;;;;;;;;;;;;;;;;106949;1256;59506;-79
2024/01/08 13:42:22;;;;;;;;;;;;;;;;;;107094;1251;59747;-80
2024/01/08 13:44:48;;;;;;;;;;;;;;;;;;107161;1253;60950;-80
2024/01/08 13:47:15;;;;;;;;;;;;;;;;;;107063;1251;59860;-79
2024/01/08 13:49:41;;;;;;;;;;;;;;;;;;107115;1253;59586;-79
2024/01/08 13:52:07;;;;;;;;;;;;;;;;;;107046;1254;59899;-79
2024/01/08 13:54:34;;;;;;;;;;;;;;;;;;107276;1253;59820;-80
2024/01/08 13:57:08;;;;;;;;;;;;;;;;;;109486;1253;59188;-80
2024/01/08 13:59:35;;;;;;;;;;;;;;;;;;109579;1251;58886;-80
2024/01/08 14:02:04;;;;;;;;;;;;;;;;;;107195;1253;60766;-80
2024/01/08 14:04:30;;;;;;;;;;;;;;;;;;107143;1251;59677;-80
2024/01/08 14:06:56;;;;;;;;;;;;;;;;;;108539;1251;59121;-79
2024/01/08 14:09:23;;;;;;;;;;;;;;;;;;109584;1251;58870;-79
2024/01/08 14:11:49;;;;;;;;;;;;;;;;;;109626;1251;58988;-79
2024/01/08 14:14:15;;;;;;;;;;;;;;;;;;109608;1250;59242;-79
2024/01/08 14:16:42;;;;;;;;;;;;;;;;;;107224;1253;59844;-79
2024/01/08 14:19:08;;;;;;;;;;;;;;;;;;109168;1251;59145;-79
2024/01/08 14:21:35;;;;;;;;;;;;;;;;;;107326;1253;59896;-79
2024/01/08 14:24:02;;;;;;;;;;;;;;;;;;107048;1251;59923;-79
2024/01/08 14:26:28;;;;;;;;;;;;;;;;;;106934;1251;61002;-79
2024/01/08 14:28:54;;;;;;;;;;;;;;;;;;106883;1254;59724;-79
2024/01/08 14:31:21;;;;;;;;;;;;;;;;;;106820;1256;61744;-79
2024/01/08 14:33:47;;;;;;;;;;;;;;;;;;106912;1254;60965;-80
2024/01/08 14:36:14;;;;;;;;;;;;;;;;;;107263;1254;62070;-80
2024/01/08 14:38:40;;;;;;;;;;;;;;;;;;106899;1251;59908;-80
2024/01/08 14:41:06;;;;;;;;;;;;;;;;;;107164;1251;60674;-79
2024/01/08 14:43:33;;;;;;;;;;;;;;;;;;106818;1255;59753;-80
2024/01/08 14:45:59;;;;;;;;;;;;;;;;;;106897;1253;59881;-80
2024/01/08 14:48:27;;;;;;;;;;;;;;;;;;106828;1251;60917;-79
2024/01/08 14:50:53;;;;;;;;;;;;;;;;;;106841;1255;60282;-80
2024/01/08 14:53:19;;;;;;;;;;;;;;;;;;106782;1251;59600;-80
2024/01/08 14:55:48;;;;;;;;;;;;;;;;;;106977;1256;59636;-79
2024/01/08 14:58:14;;;;;;;;;;;;;;;;;;106989;1251;59815;-79
2024/01/08 15:00:41;;;;;;;;;;;;;;;;;;106859;1251;59683;-80
2024/01/08 15:03:07;;;;;;;;;;;;;;;;;;106794;1252;61177;-79
2024/01/08 15:05:33;;;;;;;;;;;;;;;;;;106938;1255;59822;-79
2024/01/08 15:08:00;;;;;;;;;;;;;;;;;;106829;1256;59776;-80
2024/01/08 15:10:26;;;;;;;;;;;;;;;;;;106954;1255;62245;-80
2024/01/08 15:12:53;;;;;;;;;;;;;;;;;;106841;1252;61983;-79
2024/01/08 15:15:19;;;;;;;;;;;;;;;;;;107022;1251;59924;-79
2024/01/08 15:17:45;;;;;;;;;;;;;;;;;;106919;1255;62018;-80
2024/01/08 15:20:12;;;;;;;;;;;;;;;;;;107164;1251;62009;-79
2024/01/08 15:22:38;;;;;;;;;;;;;;;;;;107193;1251;59956;-79
2024/01/08 15:25:05;;;;;;;;;;;;;;;;;;107274;1251;60713;-80
2024/01/08 15:27:31;;;;;;;;;;;;;;;;;;107157;1251;61911;-79
2024/01/08 15:29:57;;;;;;;;;;;;;;;;;;107077;1251;61835;-80
2024/01/08 15:32:24;;;;;;;;;;;;;;;;;;106990;1251;60245;-80
2024/01/08 15:34:51;;;;;;;;;;;;;;;;;;107476;1251;59891;-79
2024/01/08 15:37:17;;;;;;;;;;;;;;;;;;107429;1251;59921;-79
2024/01/08 15:39:43;;;;;;;;;;;;;;;;;;106873;1254;59776;-80
2024/01/08 15:42:10;;;;;;;;;;;;;;;;;;107059;1254;59307;-79
2024/01/08 15:44:37;;;;;;;;;;;;;;;;;;107088;1251;59891;-80
2024/01/08 15:47:04;;;;;;;;;;;;;;;;;;106894;1251;59859;-80
2024/01/08 15:49:30;;;;;;;;;;;;;;;;;;106888;1255;60932;-80
2024/01/08 15:51:56;;;;;;;;;;;;;;;;;;106845;1255;59828;-80
2024/01/08 15:54:23;;;;;;;;;;;;;;;;;;106877;1254;59232;-79
2024/01/08 15:56:49;;;;;;;;;;;;;;;;;;106867;1254;59794;-80
2024/01/08 15:59:16;;;;;;;;;;;;;;;;;;107004;1251;60848;-80
2024/01/08 16:01:42;;;;;;;;;;;;;;;;;;106912;1254;60912;-79
2024/01/08 16:04:08;;;;;;;;;;;;;;;;;;106848;1252;61388;-79
2024/01/08 16:06:35;;;;;;;;;;;;;;;;;;106854;1251;59824;-79
2024/01/08 16:09:01;;;;;;;;;;;;;;;;;;106822;1251;59825;-79
2024/01/08 16:11:27;;;;;;;;;;;;;;;;;;106815;1255;59851;-79
2024/01/08 16:13:54;;;;;;;;;;;;;;;;;;107310;1251;59757;-79
2024/01/08 16:16:22;;;;;;;;;;;;;;;;;;106926;1254;59839;-79
2024/01/08 16:18:48;;;;;;;;;;;;;;;;;;107031;1254;59782;-79
2024/01/08 16:21:15;;;;;;;;;;;;;;;;;;106925;1256;59301;-80
2024/01/08 16:23:41;;;;;;;;;;;;;;;;;;107056;1251;62078;-79